Time;durP1;ratioP1;P1;durP2;ratioP2;P2;SDS_P1;SDS_P2;PMS_P1;PMS_P2;Temp;Humidity;BMP_temperature;BMP_pressure;BME280_temperature;BME280_humidity;BME280_pressure;Samples;Min_cycle;Max_cycle;Signal;HPM_P1;HPM_P2
2022/12/16 00:01:35;;;;;;;0.60;0.60;;;13.00;62.90;;;;;;5091749;28;20460;-63
2022/12/16 00:04:23;;;;;;;0.60;0.60;;;13.10;62.70;;;;;;5092659;28;20456;-65
2022/12/16 00:07:11;;;;;;;1.67;1.57;;;13.20;62.60;;;;;;5096174;28;20425;-63
2022/12/16 00:09:59;;;;;;;2.40;2.30;;;13.20;62.50;;;;;;5096098;28;20418;-64
2022/12/16 00:12:48;;;;;;;1.17;1.17;;;13.20;62.30;;;;;;5096564;28;20211;-64
2022/12/16 00:15:38;;;;;;;0.40;0.40;;;13.30;62.20;;;;;;5096625;28;20422;-67
2022/12/16 00:18:26;;;;;;;0.70;0.70;;;13.20;62.00;;;;;;5097306;28;20203;-63
2022/12/16 00:21:17;;;;;;;0.40;0.40;;;13.20;61.90;;;;;;5095760;28;20464;-64
2022/12/16 00:24:05;;;;;;;0.97;0.97;;;13.10;61.20;;;;;;5096196;28;20220;-65
2022/12/16 00:26:53;;;;;;;1.73;1.70;;;13.00;61.50;;;;;;5096227;28;20198;-65
2022/12/16 00:29:43;;;;;;;0.60;0.60;;;13.00;61.30;;;;;;5096080;28;20426;-64
2022/12/16 00:32:31;;;;;;;0.40;0.40;;;12.80;61.10;;;;;;5095834;28;20806;-64
2022/12/16 00:35:19;;;;;;;0.50;0.50;;;12.70;61.50;;;;;;5095874;28;20421;-64
2022/12/16 00:38:07;;;;;;;0.40;0.40;;;12.70;61.70;;;;;;5095938;28;20418;-64
2022/12/16 00:40:55;;;;;;;0.40;0.40;;;12.60;61.60;;;;;;5095228;28;20445;-64
2022/12/16 00:43:43;;;;;;;0.70;0.70;;;12.50;61.40;;;;;;5095293;28;20425;-64
2022/12/16 00:46:32;;;;;;;0.60;0.60;;;12.40;61.20;;;;;;5094943;28;20505;-63
2022/12/16 00:49:20;;;;;;;2.40;2.30;;;12.20;61.30;;;;;;5095456;28;20956;-63
2022/12/16 00:52:08;;;;;;;0.40;0.40;;;12.30;61.80;;;;;;5095758;28;20453;-64
2022/12/16 00:54:56;;;;;;;2.63;2.50;;;12.30;61.70;;;;;;5095710;28;20545;-65
2022/12/16 00:57:44;;;;;;;2.73;1.03;;;12.30;61.90;;;;;;5095968;28;20946;-64
2022/12/16 01:00:33;;;;;;;0.80;0.80;;;12.20;70.90;;;;;;5095341;28;20498;-64
2022/12/16 01:03:22;;;;;;;1.37;1.37;;;12.30;62.00;;;;;;5095197;28;21015;-65
2022/12/16 01:06:12;;;;;;;0.40;0.40;;;12.20;63.40;;;;;;5095349;28;20430;-66
2022/12/16 01:09:00;;;;;;;0.43;0.43;;;12.30;63.40;;;;;;5095134;28;20525;-64
2022/12/16 01:11:48;;;;;;;0.40;0.40;;;12.50;63.30;;;;;;5095258;28;20442;-65
2022/12/16 01:14:36;;;;;;;0.80;0.80;;;12.60;63.10;;;;;;5095438;28;20462;-64
2022/12/16 01:17:25;;;;;;;2.00;1.70;;;12.60;63.00;;;;;;5094586;28;20419;-64
2022/12/16 01:20:14;;;;;;;0.40;0.40;;;12.60;62.60;;;;;;5094263;28;20419;-65
2022/12/16 01:23:02;;;;;;;0.40;0.40;;;12.80;62.90;;;;;;5094904;28;20808;-64
2022/12/16 01:25:53;;;;;;;1.27;1.27;;;12.80;62.50;;;;;;5095211;28;20426;-64
2022/12/16 01:28:42;;;;;;;0.40;0.40;;;12.70;62.50;;;;;;5095575;28;20889;-65
2022/12/16 01:31:30;;;;;;;1.37;1.33;;;12.70;61.80;;;;;;5094593;28;20445;-63
2022/12/16 01:34:18;;;;;;;0.50;0.50;;;12.60;61.80;;;;;;5094995;28;20464;-63
2022/12/16 01:37:10;;;;;;;1.57;1.47;;;12.60;62.30;;;;;;5094315;28;20414;-65
2022/12/16 01:39:58;;;;;;;0.40;0.40;;;12.50;62.00;;;;;;5094483;28;20422;-63
2022/12/16 01:42:46;;;;;;;0.40;0.40;;;12.40;61.30;;;;;;5095379;28;20448;-64
2022/12/16 01:45:35;;;;;;;0.50;0.50;;;12.30;61.50;;;;;;5094239;28;20994;-64
2022/12/16 01:48:33;;;;;;;0.60;0.60;;;12.30;61.10;;;;;;5094155;28;20505;-65
2022/12/16 01:51:27;;;;;;;0.50;0.50;;;12.20;61.20;;;;;;5094644;28;20438;-64
2022/12/16 01:54:22;;;;;;;0.50;0.50;;;12.20;61.70;;;;;;5094239;28;20958;-64
2022/12/16 01:57:13;;;;;;;0.70;0.70;;;12.10;61.80;;;;;;5094184;28;20418;-65
2022/12/16 02:00:06;;;;;;;1.37;1.27;;;12.10;62.60;;;;;;5093604;28;20426;-64
2022/12/16 02:02:57;;;;;;;0.40;0.40;;;12.10;61.50;;;;;;5094167;28;20535;-63
2022/12/16 02:05:47;;;;;;;0.50;0.50;;;12.20;61.90;;;;;;5093934;28;20430;-64
2022/12/16 02:08:35;;;;;;;0.50;0.50;;;12.20;62.20;;;;;;5094362;28;20430;-64
2022/12/16 02:11:47;;;;;;;0.40;0.40;;;12.30;63.20;;;;;;5087978;28;20960;-64
2022/12/16 02:15:08;;;;;;;0.50;0.50;;;12.50;63.10;;;;;;5094341;28;20536;-62
2022/12/16 02:18:05;;;;;;;2.40;2.30;;;12.60;62.80;;;;;;5093802;28;20965;-65
2022/12/16 02:21:23;;;;;;;1.37;1.27;;;12.80;62.60;;;;;;5093829;28;20596;-63
2022/12/16 02:24:42;;;;;;;0.50;0.50;;;12.80;62.40;;;;;;5093781;28;20503;-63
2022/12/16 02:27:48;;;;;;;0.60;0.60;;;12.90;62.20;;;;;;5093012;28;20429;-63
2022/12/16 02:30:47;;;;;;;0.80;0.80;;;12.90;62.10;;;;;;5093296;28;20432;-63
2022/12/16 02:34:01;;;;;;;1.17;1.10;;;12.90;61.90;;;;;;5094323;28;20432;-64
2022/12/16 02:37:04;;;;;;;0.43;0.43;;;12.90;61.80;;;;;;5094052;28;20195;-64
2022/12/16 02:39:58;;;;;;;0.70;0.70;;;12.80;61.70;;;;;;5094058;28;20878;-65
2022/12/16 02:42:52;;;;;;;0.40;0.40;;;12.80;61.40;;;;;;5094293;28;20529;-64
2022/12/16 02:45:44;;;;;;;0.40;0.40;;;12.60;61.30;;;;;;5093021;28;20434;-64
2022/12/16 02:48:32;;;;;;;0.40;0.40;;;12.50;61.10;;;;;;5094017;28;20444;-63
2022/12/16 02:51:21;;;;;;;0.40;0.40;;;12.50;61.10;;;;;;5093197;28;20644;-64
2022/12/16 02:54:10;;;;;;;0.40;0.40;;;12.40;61.00;;;;;;5093830;28;20553;-64
2022/12/16 02:57:09;;;;;;;1.63;1.63;;;12.30;60.40;;;;;;5093128;28;20805;-64
2022/12/16 03:00:02;;;;;;;0.40;0.40;;;12.20;60.70;;;;;;5093463;28;20518;-63
2022/12/16 03:02:58;;;;;;;0.80;0.80;;;12.10;61.10;;;;;;5093176;28;20599;-66
2022/12/16 03:05:49;;;;;;;0.40;0.40;;;12.00;61.10;;;;;;5093950;28;20541;-66
2022/12/16 03:08:41;;;;;;;1.17;1.17;;;12.00;61.30;;;;;;5093795;28;20502;-63
2022/12/16 03:11:30;;;;;;;0.40;0.40;;;11.90;61.30;;;;;;5093807;28;20448;-64
2022/12/16 03:14:22;;;;;;;1.00;1.00;;;12.00;61.60;;;;;;5093288;28;20902;-66
2022/12/16 03:17:12;;;;;;;0.40;0.40;;;12.00;63.10;;;;;;5093394;28;20946;-64
2022/12/16 03:20:09;;;;;;;0.50;0.50;;;12.20;63.00;;;;;;5093708;28;20511;-66
2022/12/16 03:23:03;;;;;;;0.50;0.50;;;12.40;63.00;;;;;;5093342;28;20938;-64
2022/12/16 03:25:56;;;;;;;0.40;0.40;;;12.50;62.60;;;;;;5092933;28;20502;-66
2022/12/16 03:28:52;;;;;;;1.10;1.07;;;12.70;62.40;;;;;;5093257;28;20445;-64
2022/12/16 03:31:45;;;;;;;2.73;2.53;;;12.70;62.10;;;;;;5093500;28;20445;-64
2022/12/16 03:34:36;;;;;;;3.50;2.83;;;12.80;62.00;;;;;;5093295;28;20488;-64
2022/12/16 03:37:29;;;;;;;0.40;0.40;;;12.80;61.90;;;;;;5093432;28;20471;-64
2022/12/16 03:40:19;;;;;;;0.50;0.50;;;12.80;61.50;;;;;;5092323;28;20821;-65
2022/12/16 03:43:08;;;;;;;1.03;1.03;;;12.80;61.40;;;;;;5093436;28;20517;-63
2022/12/16 03:46:02;;;;;;;0.50;0.50;;;12.80;61.80;;;;;;5092190;28;20419;-63
2022/12/16 03:48:51;;;;;;;1.03;1.03;;;12.60;61.30;;;;;;5093093;28;20426;-65
2022/12/16 03:51:40;;;;;;;1.90;1.80;;;12.70;61.40;;;;;;5092955;28;20543;-63
2022/12/16 03:54:29;;;;;;;3.43;2.83;;;12.60;60.90;;;;;;5093425;28;20450;-64
2022/12/16 03:57:17;;;;;;;0.50;0.50;;;12.50;61.00;;;;;;5092596;28;20513;-64
2022/12/16 04:00:07;;;;;;;2.23;2.20;;;12.40;60.60;;;;;;5093177;28;20476;-65
2022/12/16 04:02:56;;;;;;;0.40;0.40;;;12.30;60.50;;;;;;5093199;28;20473;-65
2022/12/16 04:05:45;;;;;;;0.60;0.60;;;12.20;61.00;;;;;;5093315;28;20814;-65
2022/12/16 04:08:33;;;;;;;1.80;1.70;;;12.20;60.60;;;;;;5093061;28;20538;-63
2022/12/16 04:30:20;;;;;;;0.53;0.53;;;12.30;62.50;;;;;;5092326;28;21043;-64
